Tropical Cyclones
[Index]
Main Index Home Page Stock Weather Photos Extreme Storms Discussion Storm News and Storm Chasing Reports Tropical Cyclones / Hurricanes / Typhoons Weather Data and Links Wild Fires / Bushfires Weather Observation Techniques Weather Picture Catalogue Tornado Pictures and Reports Stock Video Footage and DVDs for sale
Season 2003-2004 Tropical Cyclone OSCAR Track Map
Season 2003-2004 Summaries: [BoM-AU] [JTWC-AU] [JTWC-SIO] [JTWC-SPAC] [JTWC-SH]
<<- Previous TC | BoM 2003-2004 Season | Next TC ->>

click for intensity scale information  Lat/long Grid: Show Hide

 Date Labels: Show Hide

Bureau of Meteorology Tropical Cyclone Data

Name: OSCAR
Number: 879 / 200304_11

21 Mar 2004 00:00 UTC to 28 Mar 2004 06:00 UTC

    date/time    lat    long    hPa   cat  kts
2004-03-21 00   12.0   103.5   1004         20          
2004-03-21 06   13.3   103.8   1004         20          
2004-03-21 12   14.2   103.4   1004         20          
2004-03-21 18   14.7   103.1   1004         20          
2004-03-22 00   15.2   102.7   1004         20          
2004-03-22 06   14.9   101.5   1004         20          
2004-03-22 12   14.8   101.1   1002         25          
2004-03-22 18   14.6   100.8   1000         25          
2004-03-23 00   14.5   100.1    998         25          
2004-03-23 06   14.4    99.2    996         30          
2004-03-23 09   14.3    98.9    995    1    35          
2004-03-23 12   14.2    98.6    992    1    45          
2004-03-23 18   14.2    97.8    988    1    50          
2004-03-24 00   14.3    96.9    985    2    50          
2004-03-24 06   14.5    96.2    985    2    50          
2004-03-24 12   14.8    95.5    980    2    55          
2004-03-24 18   15.0    94.6    980    2    60          
2004-03-25 00   15.2    93.6    975    2    60          
2004-03-25 06   15.8    93.0    970    3    60          
2004-03-25 12   16.2    92.8    965    3    70          
2004-03-25 18   16.6    92.6    945    4    85          
2004-03-26 00   17.0    92.4    940    4    90          
2004-03-26 06   17.2    92.3    940    4    90          
2004-03-26 12   17.7    92.0    940    4    90          
2004-03-26 18   17.7    91.6    945    4    85          
2004-03-27 00   17.9    91.0    950    4    80          
2004-03-27 06   18.5    90.6    960    3    70          
2004-03-27 12   18.9    90.3    970    3    60          
2004-03-27 18   19.3    89.7    980    2    50          
2004-03-28 00   19.4    89.3    990    1    40          
2004-03-28 06   19.6    89.0   1000         30          
Winds are 10-min average.

Tropical cyclone tracks developed by Michael Bath using data from the Bureau of Meteorology and Google Maps.


[Australian Severe Weather index] [Copyright Notice] [Email Contacts] [Search This Site] [Privacy Policy]
Document: tropical_cyclone_oscar.htm Updated: 29 June 2017